Time;durP1;ratioP1;P1;durP2;ratioP2;P2;SDS_P1;SDS_P2;PMS_P1;PMS_P2;Temp;Humidity;BMP_temperature;BMP_pressure;BME280_temperature;BME280_humidity;BME280_pressure;Samples;Min_cycle;Max_cycle;Signal;HPM_P1;HPM_P2
2022/11/21 00:00:41;;;;;;;21.90;10.30;;;1.40;99.90;;;;;;5067844;28;20521;-38
2022/11/21 00:03:09;;;;;;;21.05;10.00;;;1.40;99.90;;;;;;5062291;28;20133;-38
2022/11/21 00:05:39;;;;;;;18.67;9.02;;;1.40;99.90;;;;;;5063086;28;20105;-38
2022/11/21 00:08:05;;;;;;;20.95;10.35;;;1.40;99.90;;;;;;5065701;28;20040;-38
2022/11/21 00:10:30;;;;;;;23.30;11.05;;;1.40;99.90;;;;;;5064515;28;20390;-39
2022/11/21 00:12:57;;;;;;;18.75;9.68;;;1.40;99.90;;;;;;5068120;28;20036;-38
2022/11/21 00:15:24;;;;;;;21.48;10.85;;;1.40;99.90;;;;;;5060993;28;20044;-39
2022/11/21 00:17:50;;;;;;;23.35;10.30;;;1.40;99.90;;;;;;5065599;28;20056;-39
2022/11/21 00:20:17;;;;;;;19.60;9.73;;;1.40;99.90;;;;;;5065697;28;20586;-38
2022/11/21 00:22:43;;;;;;;24.25;9.75;;;1.40;99.90;;;;;;5066247;28;20044;-39
2022/11/21 00:25:10;;;;;;;17.10;8.50;;;1.40;99.90;;;;;;5065145;28;20039;-38
2022/11/21 00:27:36;;;;;;;18.30;8.10;;;1.40;99.90;;;;;;5065278;28;20036;-38
2022/11/21 00:30:02;;;;;;;21.77;10.65;;;1.40;99.90;;;;;;5062924;28;20053;-38
2022/11/21 00:32:28;;;;;;;17.42;9.13;;;1.40;99.90;;;;;;5058129;28;20052;-40
2022/11/21 00:34:53;;;;;;;19.88;9.40;;;1.40;99.90;;;;;;5062726;28;20094;-39
2022/11/21 00:37:19;;;;;;;20.73;10.00;;;1.40;99.90;;;;;;5061979;28;20062;-39
2022/11/21 00:39:45;;;;;;;17.70;9.82;;;1.40;99.90;;;;;;5060780;28;20036;-39
2022/11/21 00:42:10;;;;;;;19.70;10.30;;;1.40;99.90;;;;;;5063655;28;20037;-37
2022/11/21 00:44:36;;;;;;;19.75;9.80;;;1.40;99.90;;;;;;5066578;28;20032;-37
2022/11/21 00:47:02;;;;;;;22.80;10.43;;;1.40;99.90;;;;;;5063947;28;20037;-41
2022/11/21 00:49:27;;;;;;;17.48;9.57;;;1.40;99.90;;;;;;5063335;28;20475;-38
2022/11/21 00:51:53;;;;;;;19.83;9.43;;;1.40;99.90;;;;;;5060613;28;20037;-37
2022/11/21 00:54:19;;;;;;;19.92;9.77;;;1.40;99.90;;;;;;5070129;28;20123;-37
2022/11/21 00:56:45;;;;;;;22.13;11.52;;;1.40;99.90;;;;;;5064909;28;20048;-37
2022/11/21 00:59:10;;;;;;;16.70;9.35;;;1.40;99.90;;;;;;5067313;28;20045;-38
2022/11/21 01:01:36;;;;;;;17.35;9.18;;;1.40;99.90;;;;;;5073190;28;20147;-38
2022/11/21 01:04:02;;;;;;;17.30;8.40;;;1.40;99.90;;;;;;5063628;28;20097;-38
2022/11/21 01:06:27;;;;;;;21.00;10.75;;;1.40;99.90;;;;;;5070084;28;20123;-37
2022/11/21 01:08:53;;;;;;;23.23;11.30;;;1.40;99.90;;;;;;5058643;28;20044;-37
2022/11/21 01:11:20;;;;;;;22.23;11.05;;;1.40;99.90;;;;;;5069606;28;20047;-37
2022/11/21 01:13:47;;;;;;;16.50;8.48;;;1.40;99.90;;;;;;5059763;28;20067;-38
2022/11/21 01:16:16;;;;;;;20.10;9.73;;;1.50;99.90;;;;;;5064465;28;20081;-38
2022/11/21 01:18:42;;;;;;;18.02;8.75;;;1.40;99.90;;;;;;5065235;28;20033;-40
2022/11/21 01:21:16;;;;;;;19.55;9.00;;;1.50;99.90;;;;;;5069246;28;20036;-36
2022/11/21 01:23:43;;;;;;;19.17;9.63;;;1.50;99.90;;;;;;5064024;28;20036;-37
2022/11/21 01:26:11;;;;;;;17.20;8.82;;;1.50;99.90;;;;;;5067760;28;20485;-37
2022/11/21 01:28:37;;;;;;;19.15;10.60;;;1.40;99.90;;;;;;5066611;28;20036;-37
2022/11/21 01:31:11;;;;;;;19.08;10.18;;;1.50;99.90;;;;;;5069814;28;20040;-38
2022/11/21 01:33:37;;;;;;;22.23;10.80;;;1.40;99.90;;;;;;5060870;28;20087;-37
2022/11/21 01:36:11;;;;;;;21.13;8.85;;;1.50;99.90;;;;;;5064827;28;20068;-36
2022/11/21 01:38:38;;;;;;;22.08;10.70;;;1.50;99.90;;;;;;5061439;28;20041;-37
2022/11/21 01:41:04;;;;;;;19.25;9.57;;;1.50;99.90;;;;;;5062340;28;20492;-37
2022/11/21 01:43:30;;;;;;;18.85;9.52;;;1.50;99.90;;;;;;5067253;28;20032;-39
2022/11/21 01:45:58;;;;;;;19.25;9.80;;;1.50;99.90;;;;;;5061420;28;20104;-38
2022/11/21 01:48:33;;;;;;;19.83;9.95;;;1.50;99.90;;;;;;5064097;28;20044;-37
2022/11/21 01:51:04;;;;;;;21.80;10.40;;;1.50;99.90;;;;;;5062902;28;20065;-37
2022/11/21 01:53:30;;;;;;;20.23;10.15;;;1.50;99.90;;;;;;5065914;28;20435;-38
2022/11/21 01:55:56;;;;;;;21.05;9.43;;;1.50;99.90;;;;;;5063466;28;20094;-41
2022/11/21 01:58:22;;;;;;;22.88;11.55;;;1.50;99.90;;;;;;5059976;28;20037;-37
2022/11/21 02:00:49;;;;;;;18.67;9.82;;;1.50;99.90;;;;;;5067470;28;20506;-38
2022/11/21 02:03:18;;;;;;;19.08;9.07;;;1.50;99.90;;;;;;5065061;28;20643;-38
2022/11/21 02:05:44;;;;;;;24.83;10.35;;;1.50;99.90;;;;;;5068624;28;20413;-43
2022/11/21 02:08:15;;;;;;;24.05;10.65;;;1.50;99.90;;;;;;5065884;28;20040;-37
2022/11/21 02:11:04;;;;;;;21.90;10.95;;;1.50;99.90;;;;;;5063967;28;20055;-38
2022/11/21 02:13:30;;;;;;;19.17;10.20;;;1.50;99.90;;;;;;5061254;28;20059;-37
2022/11/21 02:15:57;;;;;;;18.02;9.70;;;1.50;99.90;;;;;;5057972;28;20393;-37
2022/11/21 02:18:22;;;;;;;17.65;9.10;;;1.50;99.90;;;;;;5064773;28;20043;-37
2022/11/21 02:20:55;;;;;;;16.70;9.20;;;1.50;99.90;;;;;;5068533;28;21176;-38
2022/11/21 02:23:55;;;;;;;20.67;10.38;;;1.50;99.90;;;;;;5063091;28;20075;-37
2022/11/21 02:26:21;;;;;;;21.17;10.13;;;1.50;99.90;;;;;;5061286;28;20129;-40
2022/11/21 02:28:47;;;;;;;18.40;8.88;;;1.50;99.90;;;;;;5065843;28;20575;-38
2022/11/21 02:31:12;;;;;;;18.50;9.35;;;1.50;99.90;;;;;;5061580;28;20044;-38
2022/11/21 02:33:38;;;;;;;17.60;9.43;;;1.50;99.90;;;;;;5067810;28;20049;-37
2022/11/21 02:36:24;;;;;;;21.55;10.43;;;1.50;99.90;;;;;;5068685;28;20043;-38
2022/11/21 02:38:50;;;;;;;16.30;8.20;;;1.50;99.90;;;;;;5066335;28;20047;-38
2022/11/21 02:41:25;;;;;;;18.95;9.45;;;1.50;99.90;;;;;;5067976;28;20036;-37
2022/11/21 02:44:01;;;;;;;17.80;9.68;;;1.50;99.90;;;;;;5061240;28;20047;-37
2022/11/21 02:46:27;;;;;;;18.65;9.70;;;1.50;99.90;;;;;;5064099;28;20085;-37
2022/11/21 02:48:56;;;;;;;19.98;9.43;;;1.50;99.90;;;;;;5064474;28;20127;-37
2022/11/21 02:51:21;;;;;;;17.58;9.13;;;1.50;99.90;;;;;;5064629;28;20409;-38
2022/11/21 02:53:47;;;;;;;17.58;9.52;;;1.50;99.90;;;;;;5063071;28;20040;-37
2022/11/21 02:56:13;;;;;;;21.73;9.43;;;1.40;99.90;;;;;;5059908;28;20037;-38
2022/11/21 02:58:38;;;;;;;21.42;9.32;;;1.50;99.90;;;;;;5069774;28;20047;-38
2022/11/21 03:01:04;;;;;;;19.90;10.65;;;1.50;99.90;;;;;;5059871;28;20036;-37
2022/11/21 03:03:29;;;;;;;18.00;9.45;;;1.40;99.90;;;;;;5064812;28;20518;-38
2022/11/21 03:05:55;;;;;;;19.80;9.88;;;1.50;99.90;;;;;;5066172;28;20422;-37
2022/11/21 03:08:21;;;;;;;22.27;10.77;;;1.50;99.90;;;;;;5056737;28;20053;-47
2022/11/21 03:10:47;;;;;;;22.50;10.85;;;1.40;99.90;;;;;;5058845;28;20460;-37
2022/11/21 03:13:12;;;;;;;20.58;10.75;;;1.40;99.90;;;;;;5060256;28;20502;-37
2022/11/21 03:15:38;;;;;;;17.20;9.18;;;1.40;99.90;;;;;;5063320;28;20032;-37
2022/11/21 03:18:04;;;;;;;17.15;8.65;;;1.40;99.90;;;;;;5066612;28;20044;-39
2022/11/21 03:20:31;;;;;;;20.83;10.90;;;1.30;99.90;;;;;;5062691;28;20045;-37
2022/11/21 03:22:57;;;;;;;22.05;11.10;;;1.30;99.90;;;;;;5059581;28;20079;-37
2022/11/21 03:25:23;;;;;;;19.20;9.13;;;1.30;99.90;;;;;;5063590;28;20506;-37
2022/11/21 03:27:53;;;;;;;17.38;9.07;;;1.20;99.90;;;;;;5059778;28;20055;-38
2022/11/21 03:30:20;;;;;;;14.73;7.70;;;1.20;99.90;;;;;;5063942;28;20093;-37
2022/11/21 03:32:46;;;;;;;18.70;9.45;;;1.10;99.90;;;;;;5057460;28;20595;-38
2022/11/21 03:35:12;;;;;;;20.63;10.68;;;1.10;99.90;;;;;;5067043;28;20405;-39
2022/11/21 03:37:37;;;;;;;21.23;10.57;;;1.10;99.90;;;;;;5065927;28;20028;-37
2022/11/21 03:40:04;;;;;;;19.83;9.80;;;1.00;99.90;;;;;;5061242;28;20068;-37
2022/11/21 03:42:29;;;;;;;20.30;9.57;;;1.00;99.90;;;;;;5060123;28;20033;-38
2022/11/21 03:44:55;;;;;;;16.58;8.50;;;1.00;99.90;;;;;;5066155;28;20037;-39
2022/11/21 03:47:21;;;;;;;21.33;9.95;;;1.00;99.90;;;;;;5063461;28;20044;-37
2022/11/21 03:49:47;;;;;;;19.25;9.25;;;1.10;99.90;;;;;;5067249;28;20052;-38
2022/11/21 03:52:13;;;;;;;22.08;10.13;;;1.10;99.90;;;;;;5058222;28;21768;-38
2022/11/21 03:54:38;;;;;;;17.00;8.98;;;1.10;99.90;;;;;;5061812;28;20158;-37
2022/11/21 03:57:04;;;;;;;18.88;9.40;;;1.10;99.90;;;;;;5065687;28;20903;-38
2022/11/21 03:59:29;;;;;;;18.98;9.60;;;1.10;99.90;;;;;;5062583;28;20043;-38
2022/11/21 04:01:55;;;;;;;16.45;9.00;;;1.10;99.90;;;;;;5065760;28;20040;-37
2022/11/21 04:04:21;;;;;;;19.85;8.82;;;1.00;99.90;;;;;;5061826;28;20033;-38
2022/11/21 04:06:46;;;;;;;18.45;9.10;;;1.00;99.90;;;;;;5064609;28;20394;-39
2022/11/21 04:09:12;;;;;;;21.77;8.18;;;1.00;99.90;;;;;;5065296;28;20040;-42
2022/11/21 04:11:38;;;;;;;18.23;8.88;;;0.90;99.90;;;;;;5065812;28;20037;-37
2022/11/21 04:14:03;;;;;;;19.80;9.35;;;0.90;99.90;;;;;;5063732;28;20043;-37
2022/11/21 04:16:29;;;;;;;18.75;9.30;;;0.80;99.90;;;;;;5061031;28;20419;-37
2022/11/21 04:18:55;;;;;;;21.30;9.82;;;0.80;99.90;;;;;;5063473;28;20082;-38
2022/11/21 04:21:20;;;;;;;20.10;9.65;;;0.70;99.90;;;;;;5060065;28;20067;-39
2022/11/21 04:23:46;;;;;;;21.05;10.80;;;0.70;99.90;;;;;;5064278;28;20392;-38
2022/11/21 04:26:12;;;;;;;20.30;9.48;;;0.70;99.90;;;;;;5057602;28;20033;-38
2022/11/21 04:28:37;;;;;;;17.83;8.85;;;0.60;99.90;;;;;;5065392;28;20118;-37
2022/11/21 04:31:05;;;;;;;20.30;10.18;;;0.60;99.90;;;;;;5066178;28;20106;-38
2022/11/21 04:33:30;;;;;;;19.85;9.57;;;0.50;99.90;;;;;;5062608;28;20048;-38
2022/11/21 04:35:56;;;;;;;17.63;9.70;;;0.50;99.90;;;;;;5065437;28;20032;-41
2022/11/21 04:38:22;;;;;;;21.20;10.73;;;0.50;99.90;;;;;;5063866;28;20039;-38
2022/11/21 04:40:47;;;;;;;21.98;10.48;;;0.50;99.90;;;;;;5054867;28;20047;-38
2022/11/21 04:43:13;;;;;;;20.70;11.05;;;0.40;99.90;;;;;;5062125;28;20554;-38
2022/11/21 04:45:38;;;;;;;22.40;11.30;;;0.40;99.90;;;;;;5063080;28;20036;-37
2022/11/21 04:48:04;;;;;;;22.80;10.68;;;0.40;99.90;;;;;;5062455;28;20337;-37
2022/11/21 04:50:31;;;;;;;20.23;9.77;;;0.40;99.90;;;;;;5061676;28;20543;-39
2022/11/21 04:52:57;;;;;;;21.33;9.63;;;0.40;99.90;;;;;;5064711;28;20482;-38
2022/11/21 04:55:27;;;;;;;23.17;10.32;;;0.40;99.90;;;;;;5058271;28;20052;-39
2022/11/21 04:57:52;;;;;;;21.92;10.85;;;0.30;99.90;;;;;;5063708;28;20092;-37
2022/11/21 05:00:20;;;;;;;23.38;11.00;;;0.30;99.90;;;;;;5060612;28;20040;-37
2022/11/21 05:02:46;;;;;;;17.20;9.00;;;0.30;99.90;;;;;;5063997;28;20239;-37
2022/11/21 05:05:11;;;;;;;22.73;10.57;;;0.20;99.90;;;;;;5067816;28;20061;-38
2022/11/21 05:07:37;;;;;;;23.20;10.32;;;0.20;99.90;;;;;;5067348;28;20061;-38
2022/11/21 05:10:05;;;;;;;17.83;9.45;;;0.20;99.90;;;;;;5063609;28;20037;-37
2022/11/21 05:15:15;;;;;;;21.67;10.02;;;0.20;99.90;;;;;;5062056;28;20638;-37
2022/11/21 05:17:41;;;;;;;20.80;9.75;;;0.10;99.90;;;;;;5064055;28;20049;-39
2022/11/21 05:20:07;;;;;;;19.33;8.75;;;0.10;99.90;;;;;;5067472;28;20441;-37
2022/11/21 05:22:33;;;;;;;17.85;9.05;;;0.10;99.90;;;;;;5061075;28;20171;-37
2022/11/21 05:24:58;;;;;;;27.08;10.63;;;0.10;99.90;;;;;;5065706;28;20115;-37
2022/11/21 05:27:24;;;;;;;23.70;10.77;;;0.10;99.90;;;;;;5066050;28;20028;-37
2022/11/21 05:29:50;;;;;;;18.02;9.10;;;0.10;99.90;;;;;;5062389;28;20054;-38
2022/11/21 05:32:15;;;;;;;24.45;11.05;;;0.00;99.90;;;;;;5062416;28;20375;-38
2022/11/21 05:34:41;;;;;;;18.90;8.52;;;0.00;99.90;;;;;;5062810;28;20413;-38
2022/11/21 05:37:06;;;;;;;24.15;10.05;;;0.00;99.90;;;;;;5059811;28;20045;-37
2022/11/21 05:39:32;;;;;;;23.17;11.07;;;0.00;99.90;;;;;;5066258;28;20044;-36
2022/11/21 05:41:58;;;;;;;19.33;10.10;;;0.00;99.90;;;;;;5070227;28;20029;-37
2022/11/21 05:44:23;;;;;;;20.63;10.00;;;0.00;99.90;;;;;;5067580;28;20497;-39
2022/11/21 05:46:49;;;;;;;18.58;9.25;;;0.00;99.90;;;;;;5065970;28;20033;-38
2022/11/21 05:49:15;;;;;;;21.52;9.95;;;-0.10;99.90;;;;;;5065826;28;20405;-38
2022/11/21 05:51:40;;;;;;;22.98;11.13;;;0.00;99.90;;;;;;5067794;28;20528;-38
2022/11/21 05:54:06;;;;;;;22.23;10.60;;;-0.10;99.90;;;;;;5060229;28;20036;-38
2022/11/21 05:56:32;;;;;;;24.05;11.00;;;-0.10;99.90;;;;;;5060661;28;20039;-39
2022/11/21 05:58:58;;;;;;;22.13;10.90;;;-0.10;99.90;;;;;;5062435;28;20048;-38
2022/11/21 06:04:09;;;;;;;20.15;9.50;;;-0.10;99.90;;;;;;5064149;28;20090;-38
2022/11/21 06:06:35;;;;;;;22.27;10.27;;;-0.10;99.90;;;;;;5065791;28;20086;-38
2022/11/21 06:09:01;;;;;;;22.60;10.90;;;-0.20;99.90;;;;;;5058588;28;20041;-37
2022/11/21 06:11:27;;;;;;;22.30;10.80;;;-0.20;99.90;;;;;;5063451;28;20115;-37
2022/11/21 06:13:53;;;;;;;18.33;10.10;;;-0.20;99.90;;;;;;5062406;28;20115;-38
2022/11/21 06:16:19;;;;;;;23.33;11.25;;;-0.20;99.90;;;;;;5058159;28;20101;-39
2022/11/21 06:18:47;;;;;;;19.08;9.55;;;-0.30;99.90;;;;;;5062557;28;20763;-37
2022/11/21 06:21:18;;;;;;;20.92;9.88;;;-0.30;99.90;;;;;;5059225;28;20037;-37
2022/11/21 06:23:44;;;;;;;21.67;10.63;;;-0.30;99.90;;;;;;5061635;28;20032;-38
2022/11/21 06:26:16;;;;;;;21.55;10.88;;;-0.30;99.90;;;;;;5055866;28;21215;-38
2022/11/21 06:28:42;;;;;;;23.30;10.65;;;-0.40;99.90;;;;;;5059020;28;20072;-38
2022/11/21 06:31:12;;;;;;;53.78;11.18;;;-0.40;99.90;;;;;;5056839;28;20083;-37
2022/11/21 06:33:40;;;;;;;97.63;16.38;;;-0.40;99.90;;;;;;5058890;28;20160;-38
2022/11/21 06:36:10;;;;;;;96.60;13.18;;;-0.40;99.90;;;;;;5054615;28;20045;-40
2022/11/21 06:38:37;;;;;;;156.60;17.63;;;-0.50;99.90;;;;;;5053845;28;20510;-38
2022/11/21 06:41:12;;;;;;;156.57;19.33;;;-0.40;99.90;;;;;;5055129;28;20040;-37
2022/11/21 06:43:39;;;;;;;147.40;17.40;;;-0.40;99.90;;;;;;5059202;28;20036;-39
2022/11/21 06:46:05;;;;;;;133.80;18.67;;;-0.40;99.90;;;;;;5061488;28;20032;-36
2022/11/21 06:48:31;;;;;;;140.63;17.20;;;-0.40;99.90;;;;;;5059616;28;20046;-38
2022/11/21 06:50:57;;;;;;;143.25;19.25;;;-0.40;99.90;;;;;;5057290;28;20793;-37
2022/11/21 06:53:23;;;;;;;79.03;14.07;;;-0.30;99.90;;;;;;5058935;28;20426;-37
2022/11/21 06:55:49;;;;;;;94.30;15.13;;;-0.30;99.90;;;;;;5057576;28;20036;-38
2022/11/21 06:58:14;;;;;;;63.08;13.25;;;-0.30;99.90;;;;;;5056892;28;20521;-38
2022/11/21 07:00:40;;;;;;;78.10;18.25;;;-0.20;99.90;;;;;;5057049;28;20079;-39
2022/11/21 07:03:06;;;;;;;88.93;15.25;;;-0.20;99.90;;;;;;5052354;28;20033;-38
2022/11/21 07:05:32;;;;;;;86.15;15.80;;;-0.10;99.90;;;;;;5054090;28;20045;-38
2022/11/21 07:08:00;;;;;;;88.05;16.75;;;-0.10;99.90;;;;;;5054642;28;20037;-38
2022/11/21 07:10:27;;;;;;;66.13;13.38;;;-0.10;99.90;;;;;;5055756;28;20839;-38
2022/11/21 07:15:46;;;;;;;107.50;18.88;;;0.10;99.90;;;;;;5055143;28;20040;-38
2022/11/21 07:18:12;;;;;;;76.18;16.50;;;0.10;99.90;;;;;;5057742;28;20373;-38
2022/11/21 07:20:38;;;;;;;51.45;11.38;;;0.10;99.90;;;;;;5056262;28;20052;-38
2022/11/21 07:23:05;;;;;;;49.47;8.57;;;0.10;99.90;;;;;;5056043;28;20037;-39
2022/11/21 07:25:31;;;;;;;47.08;11.35;;;0.10;99.90;;;;;;5055265;28;20040;-38
2022/11/21 07:28:01;;;;;;;53.00;10.45;;;0.10;99.90;;;;;;5052923;28;20098;-39
2022/11/21 07:30:28;;;;;;;40.03;8.25;;;0.10;99.90;;;;;;5054791;28;20532;-37
2022/11/21 07:32:57;;;;;;;80.07;14.60;;;0.10;99.90;;;;;;5053539;28;20497;-38
2022/11/21 07:35:24;;;;;;;50.80;9.88;;;0.10;99.90;;;;;;5056310;28;20044;-37
2022/11/21 07:37:50;;;;;;;55.35;12.32;;;0.10;99.90;;;;;;5054883;28;20048;-37
2022/11/21 07:40:16;;;;;;;66.68;12.60;;;0.20;99.90;;;;;;5055015;28;20037;-38
2022/11/21 07:42:42;;;;;;;70.75;11.95;;;0.20;99.90;;;;;;5055638;28;20040;-38
2022/11/21 07:45:08;;;;;;;78.25;10.88;;;0.20;99.90;;;;;;5050027;28;20025;-38
2022/11/21 07:47:34;;;;;;;30.90;9.10;;;0.20;99.90;;;;;;5057844;28;20056;-37
2022/11/21 07:49:59;;;;;;;30.75;9.15;;;0.20;99.90;;;;;;5055079;28;20028;-39
2022/11/21 07:52:25;;;;;;;35.55;9.10;;;0.20;99.90;;;;;;5056942;28;20036;-39
2022/11/21 07:54:51;;;;;;;51.30;10.32;;;0.20;99.90;;;;;;5057174;28;20044;-37
2022/11/21 07:57:16;;;;;;;39.35;8.52;;;0.20;99.90;;;;;;5058734;28;20040;-38
2022/11/21 07:59:43;;;;;;;55.95;10.93;;;0.20;99.90;;;;;;5056637;28;20044;-38
2022/11/21 08:02:27;;;;;;;59.90;11.05;;;0.20;99.90;;;;;;5056859;28;20029;-37
2022/11/21 08:04:53;;;;;;;63.33;10.65;;;0.30;99.90;;;;;;5064602;28;20036;-38
2022/11/21 08:07:21;;;;;;;46.55;8.95;;;0.20;99.90;;;;;;5056042;28;20044;-37
2022/11/21 08:09:46;;;;;;;48.05;8.30;;;0.30;99.90;;;;;;5052970;28;20094;-40
2022/11/21 08:12:13;;;;;;;91.93;12.98;;;0.30;99.90;;;;;;5054818;28;20044;-38
2022/11/21 08:14:38;;;;;;;62.15;9.75;;;0.30;99.90;;;;;;5052786;28;20049;-37
2022/11/21 08:17:05;;;;;;;92.82;10.98;;;0.30;99.90;;;;;;5053634;28;20061;-38
2022/11/21 08:19:30;;;;;;;48.78;7.20;;;0.40;99.90;;;;;;5051299;28;20041;-38
2022/11/21 08:21:56;;;;;;;89.60;13.23;;;0.40;99.90;;;;;;5075129;28;20036;-38
2022/11/21 08:24:23;;;;;;;55.85;9.18;;;0.40;99.90;;;;;;5057509;28;20626;-38
2022/11/21 08:26:48;;;;;;;58.53;8.90;;;0.40;99.90;;;;;;5046133;28;20181;-38
2022/11/21 08:29:14;;;;;;;94.90;12.43;;;0.40;99.90;;;;;;5057873;28;20123;-39
2022/11/21 08:31:41;;;;;;;29.02;7.13;;;0.40;99.90;;;;;;5055307;28;20045;-37
2022/11/21 08:34:06;;;;;;;49.10;9.85;;;0.40;99.90;;;;;;5049745;28;20044;-37
2022/11/21 08:36:32;;;;;;;54.47;9.38;;;0.40;99.90;;;;;;5050941;28;20036;-38
2022/11/21 08:38:57;;;;;;;53.65;10.43;;;0.40;99.90;;;;;;5058778;28;20045;-39
2022/11/21 08:44:07;;;;;;;36.92;8.30;;;0.50;99.90;;;;;;5057968;28;20040;-37
2022/11/21 08:46:36;;;;;;;59.08;8.45;;;0.50;99.90;;;;;;5049272;28;20040;-39
2022/11/21 08:49:10;;;;;;;35.53;8.32;;;0.60;99.90;;;;;;5056764;28;20045;-37
2022/11/21 08:51:36;;;;;;;24.48;6.78;;;0.60;99.90;;;;;;5051163;28;20029;-38
2022/11/21 08:54:02;;;;;;;28.88;8.07;;;0.60;99.90;;;;;;5054479;28;20470;-37
2022/11/21 08:56:28;;;;;;;31.63;6.60;;;0.60;99.90;;;;;;5054837;28;20544;-37
2022/11/21 08:58:55;;;;;;;29.40;6.97;;;0.60;99.90;;;;;;5055038;28;20148;-37
2022/11/21 09:01:21;;;;;;;32.08;7.60;;;0.60;99.90;;;;;;5050057;28;20156;-38
2022/11/21 09:03:46;;;;;;;23.42;7.03;;;0.70;99.90;;;;;;5057186;28;20059;-36
2022/11/21 09:06:12;;;;;;;22.33;8.63;;;0.70;99.90;;;;;;5060855;28;20588;-38
2022/11/21 09:08:38;;;;;;;31.90;9.80;;;0.70;99.90;;;;;;5060245;28;20502;-39
2022/11/21 09:11:08;;;;;;;20.20;7.53;;;0.70;99.90;;;;;;5060803;28;20151;-37
2022/11/21 09:13:35;;;;;;;18.80;8.18;;;0.80;99.90;;;;;;5053405;28;20048;-38
2022/11/21 09:18:46;;;;;;;16.10;7.53;;;0.90;99.90;;;;;;5061762;28;20071;-38
2022/11/21 09:21:16;;;;;;;16.08;6.90;;;1.00;99.90;;;;;;5061420;28;22220;-39
2022/11/21 09:23:42;;;;;;;19.30;7.97;;;1.00;99.90;;;;;;5061437;28;20219;-37
2022/11/21 09:26:08;;;;;;;15.07;6.78;;;1.10;99.90;;;;;;5061569;28;20044;-38
2022/11/21 09:28:34;;;;;;;12.30;6.50;;;1.20;99.90;;;;;;5059829;28;20040;-37
2022/11/21 09:31:02;;;;;;;15.50;6.75;;;1.20;99.90;;;;;;5059344;28;20048;-38
2022/11/21 09:33:27;;;;;;;15.65;7.32;;;1.20;99.90;;;;;;5062670;28;20047;-46
2022/11/21 09:35:53;;;;;;;14.55;6.53;;;1.30;99.90;;;;;;5060610;28;20040;-38
2022/11/21 09:38:19;;;;;;;15.77;6.75;;;1.40;99.90;;;;;;5059442;28;20066;-38
2022/11/21 09:40:47;;;;;;;12.65;6.85;;;1.40;99.90;;;;;;5059503;28;20386;-38
2022/11/21 09:43:23;;;;;;;15.27;7.20;;;1.50;99.90;;;;;;5058036;28;20036;-37
2022/11/21 09:46:08;;;;;;;14.80;7.18;;;1.50;99.90;;;;;;5063400;28;20127;-40
2022/11/21 09:49:06;;;;;;;14.35;6.65;;;1.60;99.90;;;;;;5058429;28;20037;-37
2022/11/21 09:51:34;;;;;;;13.63;6.72;;;1.70;99.90;;;;;;5053686;28;20500;-38
2022/11/21 09:54:02;;;;;;;17.25;7.75;;;1.70;99.90;;;;;;5062006;28;20097;-38
2022/11/21 09:56:30;;;;;;;12.70;6.85;;;1.70;99.90;;;;;;5053217;28;20054;-37
2022/11/21 09:59:04;;;;;;;14.75;6.68;;;1.80;99.90;;;;;;5074138;28;20445;-38
2022/11/21 10:01:30;;;;;;;14.82;7.18;;;1.80;99.90;;;;;;5052733;28;20470;-38
2022/11/21 10:03:56;;;;;;;16.65;7.82;;;1.80;99.90;;;;;;5056873;28;20036;-39
2022/11/21 10:06:26;;;;;;;15.05;7.35;;;1.80;99.90;;;;;;5059473;28;20077;-38
2022/11/21 10:09:15;;;;;;;14.32;6.60;;;1.80;99.90;;;;;;5059204;28;20046;-39
2022/11/21 10:15:12;;;;;;;14.27;7.30;;;1.80;99.90;;;;;;5059896;28;20045;-39
2022/11/21 10:18:08;;;;;;;17.10;7.65;;;1.90;99.90;;;;;;5063658;28;20549;-39
2022/11/21 10:20:49;;;;;;;12.98;6.95;;;1.90;99.90;;;;;;5063492;28;20517;-39
2022/11/21 10:23:39;;;;;;;14.02;7.03;;;1.90;99.90;;;;;;5053486;28;20036;-38
2022/11/21 10:26:39;;;;;;;15.20;6.78;;;1.90;99.90;;;;;;5049026;28;20052;-39
2022/11/21 10:29:35;;;;;;;12.57;7.32;;;1.90;99.90;;;;;;5048951;28;20099;-38
2022/11/21 10:32:12;;;;;;;13.48;6.63;;;1.90;99.90;;;;;;5052936;28;20049;-38
2022/11/21 10:34:38;;;;;;;14.50;7.28;;;1.90;99.90;;;;;;5055022;28;20029;-38
2022/11/21 10:37:15;;;;;;;15.00;7.18;;;1.90;99.90;;;;;;5062177;28;20509;-39
2022/11/21 10:39:46;;;;;;;14.38;6.85;;;1.90;99.90;;;;;;5055176;28;20036;-39
2022/11/21 10:42:33;;;;;;;14.38;6.93;;;1.90;99.90;;;;;;5062049;28;20098;-38
2022/11/21 10:45:15;;;;;;;15.65;7.32;;;1.90;99.90;;;;;;5064002;28;20130;-38
2022/11/21 10:47:42;;;;;;;16.27;6.82;;;1.90;99.90;;;;;;5065919;28;20029;-37
2022/11/21 10:50:28;;;;;;;15.45;7.53;;;1.90;99.90;;;;;;5055196;28;20037;-37
2022/11/21 10:54:31;;;;;;;15.55;6.80;;;1.90;99.90;;;;;;5060636;28;20083;-39
2022/11/21 10:56:05;;;;;;;16.88;7.70;;;1.90;99.90;;;;;;5053867;28;20502;-39
2022/11/21 10:58:45;;;;;;;15.52;6.95;;;2.00;99.90;;;;;;5053545;28;20081;-38
2022/11/21 11:01:20;;;;;;;15.13;7.43;;;2.00;99.90;;;;;;5057240;28;20037;-38
2022/11/21 11:03:46;;;;;;;14.63;6.75;;;2.00;99.90;;;;;;5064290;28;20037;-38
2022/11/21 11:06:11;;;;;;;14.52;7.30;;;2.10;99.90;;;;;;5066969;28;20039;-40
2022/11/21 11:09:03;;;;;;;13.90;6.57;;;2.20;99.90;;;;;;5059995;28;20033;-40
2022/11/21 11:11:29;;;;;;;14.63;7.63;;;2.20;99.90;;;;;;5060199;28;20510;-38
2022/11/21 11:14:04;;;;;;;16.73;7.47;;;2.20;99.90;;;;;;5060068;28;21551;-37
2022/11/21 11:16:33;;;;;;;16.13;7.13;;;2.20;99.90;;;;;;5063683;28;20048;-40
2022/11/21 11:19:04;;;;;;;17.35;7.72;;;2.30;99.90;;;;;;5063753;28;20558;-38
2022/11/21 11:21:39;;;;;;;15.52;7.72;;;2.20;99.90;;;;;;5060271;28;20532;-37
2022/11/21 11:24:08;;;;;;;15.80;7.57;;;2.30;99.90;;;;;;5055212;28;20082;-38
2022/11/21 11:26:46;;;;;;;14.68;7.43;;;2.30;99.90;;;;;;5061384;28;20371;-39
2022/11/21 11:29:34;;;;;;;13.65;7.13;;;2.30;99.90;;;;;;5057772;28;20032;-38
2022/11/21 11:32:17;;;;;;;17.17;7.93;;;2.30;99.90;;;;;;5036922;28;20056;-40
2022/11/21 11:35:00;;;;;;;16.77;7.88;;;2.30;99.90;;;;;;5032484;28;20048;-38
2022/11/21 11:37:40;;;;;;;17.30;8.10;;;2.40;99.90;;;;;;5037487;28;20041;-38
2022/11/21 11:40:25;;;;;;;15.45;6.82;;;2.40;99.90;;;;;;5031652;28;20041;-38
2022/11/21 11:52:38;;;;;;;16.48;7.43;;;2.80;99.90;;;;;;5040605;28;20049;-39
2022/11/21 11:55:17;;;;;;;12.98;6.78;;;2.90;99.90;;;;;;5034762;28;20060;-40
2022/11/21 11:57:43;;;;;;;14.35;7.30;;;3.10;99.90;;;;;;5038842;28;20399;-41
2022/11/21 12:00:20;;;;;;;15.05;7.00;;;3.10;99.90;;;;;;5038711;28;21270;-39
2022/11/21 12:02:50;;;;;;;14.70;7.25;;;3.20;99.90;;;;;;5036786;28;20090;-40
2022/11/21 12:05:27;;;;;;;16.95;7.30;;;3.20;99.90;;;;;;5038828;28;20033;-40
2022/11/21 12:08:25;;;;;;;15.00;7.53;;;3.20;99.90;;;;;;5036826;28;20082;-39
2022/11/21 12:13:42;;;;;;;15.45;6.55;;;3.10;99.90;;;;;;5035381;28;20080;-40
2022/11/21 12:16:13;;;;;;;16.05;7.85;;;3.00;99.90;;;;;;5041086;28;20041;-40
2022/11/21 12:18:47;;;;;;;14.88;6.85;;;3.00;99.90;;;;;;5039162;28;20524;-40
2022/11/21 12:21:14;;;;;;;17.92;7.30;;;3.00;99.90;;;;;;5033106;28;20063;-39
2022/11/21 12:24:07;;;;;;;14.43;6.78;;;3.00;99.90;;;;;;5040009;28;20037;-39
2022/11/21 12:26:58;;;;;;;13.60;6.43;;;3.00;99.90;;;;;;5035706;28;20068;-40
2022/11/21 12:29:44;;;;;;;16.80;7.45;;;3.00;99.90;;;;;;5040370;28;20759;-40
2022/11/21 12:32:36;;;;;;;18.80;7.60;;;3.00;99.90;;;;;;5034567;28;20521;-40
2022/11/21 12:35:07;;;;;;;19.70;7.88;;;3.00;99.90;;;;;;5031352;28;20046;-39
2022/11/21 12:37:54;;;;;;;18.00;6.90;;;3.00;99.90;;;;;;5040637;28;20406;-40
2022/11/21 12:40:42;;;;;;;17.02;7.35;;;3.00;99.90;;;;;;5035241;28;20506;-41
2022/11/21 12:43:35;;;;;;;18.55;7.53;;;3.10;99.90;;;;;;5035049;28;20076;-41
2022/11/21 12:46:23;;;;;;;19.13;7.63;;;3.00;99.90;;;;;;5034949;28;20075;-41
2022/11/21 12:55:42;;;;;;;20.23;8.32;;;3.10;99.90;;;;;;5043821;28;21138;-39
2022/11/21 12:58:22;;;;;;;23.98;8.80;;;3.10;99.90;;;;;;5034857;28;20042;-39
2022/11/21 13:01:03;;;;;;;19.10;8.05;;;3.10;99.90;;;;;;5042761;28;20103;-39
2022/11/21 13:03:44;;;;;;;20.52;8.82;;;3.10;99.90;;;;;;5016659;28;20033;-39
2022/11/21 13:06:18;;;;;;;19.95;8.95;;;3.20;99.90;;;;;;5036356;28;20126;-39
2022/11/21 13:08:47;;;;;;;28.17;10.18;;;3.10;99.90;;;;;;5042968;28;20037;-39
2022/11/21 13:14:18;;;;;;;26.60;9.20;;;3.20;99.90;;;;;;5038484;28;20059;-39
2022/11/21 13:16:51;;;;;;;26.38;9.75;;;3.20;99.90;;;;;;5042176;28;20048;-40
2022/11/21 13:19:58;;;;;;;24.52;8.90;;;3.20;99.90;;;;;;5036518;28;20037;-39
2022/11/21 13:22:36;;;;;;;22.60;8.38;;;3.30;99.90;;;;;;5028349;28;20128;-40
2022/11/21 13:25:10;;;;;;;29.48;11.32;;;3.30;99.90;;;;;;5036108;28;20034;-42
2022/11/21 13:27:43;;;;;;;25.40;9.05;;;3.30;99.90;;;;;;5038542;28;20442;-39
2022/11/21 13:30:10;;;;;;;26.20;9.57;;;3.30;99.90;;;;;;5041388;28;20127;-39
2022/11/21 13:32:40;;;;;;;30.20;10.98;;;3.30;99.90;;;;;;5069103;28;20131;-39
2022/11/21 13:35:18;;;;;;;30.73;9.60;;;3.30;99.90;;;;;;5069564;28;20401;-40